Time;durP1;ratioP1;P1;durP2;ratioP2;P2;SDS_P1;SDS_P2;PMS_P1;PMS_P2;Temp;Humidity;BMP_temperature;BMP_pressure;BME280_temperature;BME280_humidity;BME280_pressure;Samples;Min_cycle;Max_cycle;Signal;HPM_P1;HPM_P2
2020/12/20 00:00:36;;;;;;;51.13;22.67;;;;;;;6.65;80.48;101165.22;6195519;23;20001;-73
2020/12/20 00:03:01;;;;;;;56.72;23.48;;;;;;;6.82;79.73;101181.69;6195886;23;20005;-73
2020/12/20 00:05:27;;;;;;;52.45;23.33;;;;;;;6.72;79.92;101181.47;6195531;23;20001;-73
2020/12/20 00:07:53;;;;;;;52.33;22.40;;;;;;;6.65;80.26;101182.81;6194328;23;20008;-73
2020/12/20 00:10:20;;;;;;;48.53;22.70;;;;;;;6.78;80.14;101180.22;6195370;23;20081;-73
2020/12/20 00:12:46;;;;;;;52.40;21.35;;;;;;;6.76;78.62;101171.56;6195728;23;20178;-73
2020/12/20 00:15:11;;;;;;;47.20;20.63;;;;;;;6.89;78.57;101189.06;6195797;23;20008;-73
2020/12/20 00:17:37;;;;;;;52.65;21.17;;;;;;;6.80;78.21;101184.44;6195343;23;20001;-73
2020/12/20 00:20:06;;;;;;;51.10;21.03;;;;;;;6.67;78.78;101187.03;6195432;23;20005;-73
2020/12/20 00:22:31;;;;;;;51.40;21.73;;;;;;;6.61;79.44;101194.50;6195497;23;20186;-73
2020/12/20 00:24:57;;;;;;;47.67;20.83;;;;;;;6.53;79.86;101189.72;6195056;23;20001;-73
2020/12/20 00:27:24;;;;;;;47.08;20.25;;;;;;;6.46;79.60;101192.88;6195402;23;20227;-73
2020/12/20 00:29:50;;;;;;;53.60;20.83;;;;;;;6.44;80.50;101192.13;6195228;23;20008;-73
2020/12/20 00:32:16;;;;;;;49.50;21.27;;;;;;;6.49;80.08;101190.88;6195052;23;20009;-73
2020/12/20 00:34:42;;;;;;;50.35;21.52;;;;;;;6.44;80.30;101198.22;6193757;23;20201;-73
2020/12/20 00:37:07;;;;;;;50.88;21.65;;;;;;;6.47;80.58;101202.44;6195428;23;20005;-73
2020/12/20 00:39:33;;;;;;;51.75;22.55;;;;;;;6.47;81.48;101192.78;6195154;23;20060;-73
2020/12/20 00:42:02;;;;;;;49.67;21.98;;;;;;;6.57;82.11;101196.47;6195129;23;20012;-73
2020/12/20 00:44:28;;;;;;;53.53;22.67;;;;;;;6.61;81.81;101189.22;6195765;23;20008;-73
2020/12/20 00:46:54;;;;;;;50.25;21.85;;;;;;;6.66;80.76;101181.88;6195189;23;20005;-73
2020/12/20 00:49:22;;;;;;;52.83;23.92;;;;;;;6.85;80.23;101184.13;6195088;23;20064;-73
2020/12/20 00:51:47;;;;;;;58.22;23.63;;;;;;;6.93;79.49;101173.91;6195074;23;20100;-73
2020/12/20 00:54:13;;;;;;;57.42;24.02;;;;;;;6.97;79.69;101178.88;6194677;23;20020;-73
2020/12/20 00:56:38;;;;;;;52.67;23.70;;;;;;;7.09;79.19;101181.59;6195107;23;20012;-73
2020/12/20 00:59:04;;;;;;;58.28;24.83;;;;;;;7.10;78.99;101172.75;6194833;23;20004;-73
2020/12/20 01:01:29;;;;;;;55.90;24.20;;;;;;;7.04;78.89;101174.03;6194900;23;20012;-73
2020/12/20 01:03:55;;;;;;;55.17;23.85;;;;;;;7.10;78.27;101170.97;6195433;23;20086;-73
2020/12/20 01:06:24;;;;;;;55.10;24.35;;;;;;;7.19;78.53;101170.34;6194620;23;20008;-73
2020/12/20 01:08:51;;;;;;;53.55;24.27;;;;;;;7.16;78.63;101165.28;6195259;23;19997;-73
2020/12/20 01:11:17;;;;;;;55.85;24.52;;;;;;;7.22;77.84;101166.66;6194758;23;19997;-73
2020/12/20 01:13:48;;;;;;;55.67;24.98;;;;;;;7.31;77.58;101163.41;6194785;23;20005;-73
2020/12/20 01:16:29;;;;;;;54.85;24.30;;;;;;;7.28;78.09;101156.56;6194883;23;20035;-73
2020/12/20 01:18:55;;;;;;;57.70;26.23;;;;;;;7.28;77.47;101158.31;6194992;23;20027;-73
2020/12/20 01:21:21;;;;;;;61.60;25.05;;;;;;;7.34;76.86;101155.28;6194597;23;20024;-73
2020/12/20 01:23:47;;;;;;;59.63;25.20;;;;;;;7.32;76.43;101154.56;6193266;23;20008;-73
2020/12/20 01:26:13;;;;;;;57.22;25.88;;;;;;;7.34;77.04;101156.13;6194774;23;20003;-73
2020/12/20 01:28:38;;;;;;;55.75;23.75;;;;;;;7.43;76.56;101169.63;6195399;23;20194;-73
2020/12/20 01:31:08;;;;;;;55.28;26.20;;;;;;;7.33;76.70;101154.44;6194852;23;19997;-73
2020/12/20 01:33:35;;;;;;;56.28;25.65;;;;;;;7.14;77.75;101132.09;6194476;23;20025;-73
2020/12/20 01:36:19;;;;;;;58.53;25.48;;;;;;;7.28;78.27;101153.06;6194764;23;20017;-73
2020/12/20 01:38:44;;;;;;;63.35;26.88;;;;;;;7.30;77.81;101151.19;6193383;23;20244;-73
2020/12/20 01:41:10;;;;;;;61.13;26.00;;;;;;;7.27;77.63;101149.56;6193335;23;19997;-73
2020/12/20 01:43:40;;;;;;;58.25;26.27;;;;;;;7.34;77.88;101157.94;6195218;23;20009;-73
2020/12/20 01:46:09;;;;;;;64.47;26.92;;;;;;;7.33;77.25;101143.91;6195117;23;20003;-73
2020/12/20 01:48:35;;;;;;;62.80;27.08;;;;;;;7.39;77.23;101152.34;6195226;23;20167;-73
2020/12/20 01:51:01;;;;;;;64.82;28.10;;;;;;;7.30;77.28;101153.81;6194630;23;19996;-73
2020/12/20 01:53:26;;;;;;;67.00;28.50;;;;;;;7.24;77.41;101164.75;6194811;23;20069;-73
2020/12/20 01:55:59;;;;;;;62.05;27.05;;;;;;;7.19;77.82;101148.41;6194682;23;20013;-73
2020/12/20 01:58:26;;;;;;;55.28;25.88;;;;;;;7.25;78.12;101150.63;6195116;23;20108;-73
2020/12/20 02:00:52;;;;;;;60.83;27.60;;;;;;;7.32;78.10;101155.41;6194619;23;19993;-73
2020/12/20 02:03:18;;;;;;;66.40;27.20;;;;;;;7.23;78.17;101145.47;6193385;23;20036;-73
2020/12/20 02:05:43;;;;;;;61.30;27.15;;;;;;;7.26;78.92;101142.63;6194717;23;20017;-73
2020/12/20 02:08:08;;;;;;;63.17;27.10;;;;;;;7.32;78.45;101146.66;6194989;23;20013;-73
2020/12/20 02:10:34;;;;;;;64.47;28.52;;;;;;;7.29;78.68;101136.31;6194530;23;20245;-73
2020/12/20 02:13:03;;;;;;;61.65;28.45;;;;;;;7.36;78.12;101135.78;6193262;23;20044;-73
2020/12/20 02:15:29;;;;;;;69.25;27.92;;;;;;;7.38;77.84;101134.84;6194472;23;20046;-73
2020/12/20 02:17:54;;;;;;;65.35;29.00;;;;;;;7.46;77.05;101143.03;6194958;23;20238;-73
2020/12/20 02:20:20;;;;;;;68.18;30.02;;;;;;;7.28;77.33;101140.75;6194515;23;20024;-73
2020/12/20 02:22:45;;;;;;;71.55;28.85;;;;;;;7.34;77.77;101136.84;6196825;23;20064;-73
2020/12/20 02:25:12;;;;;;;62.65;27.60;;;;;;;7.36;77.71;101145.50;6196267;23;20043;-73
2020/12/20 02:27:37;;;;;;;60.45;27.98;;;;;;;7.14;79.35;101151.38;6196658;23;20005;-73
2020/12/20 02:30:04;;;;;;;59.72;26.35;;;;;;;7.23;79.50;101142.00;6195025;23;20068;-73
2020/12/20 02:32:30;;;;;;;60.03;26.55;;;;;;;7.24;78.95;101143.69;6195986;23;20012;-73
2020/12/20 02:34:55;;;;;;;63.33;27.02;;;;;;;7.28;78.86;101138.13;6196471;23;20184;-73
2020/12/20 02:37:21;;;;;;;68.03;30.55;;;;;;;7.28;78.79;101146.03;6196554;23;20005;-73
2020/12/20 02:39:46;;;;;;;63.75;27.48;;;;;;;7.30;78.67;101135.38;6196450;23;20267;-73
2020/12/20 02:42:12;;;;;;;71.38;30.38;;;;;;;7.26;78.57;101144.41;6196572;23;20188;-73
2020/12/20 02:44:37;;;;;;;66.47;29.42;;;;;;;7.32;78.41;101149.28;6196286;23;20023;-73
2020/12/20 02:47:04;;;;;;;68.82;29.45;;;;;;;7.34;78.68;101147.38;6196383;23;20056;-73
2020/12/20 02:49:29;;;;;;;66.55;28.90;;;;;;;7.32;78.31;101152.75;6196194;23;20203;-73
2020/12/20 02:51:54;;;;;;;69.55;28.40;;;;;;;7.30;78.66;101153.81;6196263;23;20025;-73
2020/12/20 02:54:20;;;;;;;69.32;29.25;;;;;;;7.34;78.22;101145.59;6194318;23;20179;-73
2020/12/20 02:56:46;;;;;;;61.70;28.73;;;;;;;7.42;77.98;101146.84;6196540;23;20390;-73
2020/12/20 02:59:11;;;;;;;66.47;28.90;;;;;;;7.37;78.09;101136.63;6195973;23;20001;-73
2020/12/20 03:01:36;;;;;;;65.72;28.88;;;;;;;7.41;77.46;101140.75;6196149;23;20005;-73
2020/12/20 03:04:02;;;;;;;69.65;30.20;;;;;;;7.34;78.09;101145.59;6196228;23;20020;-73
2020/12/20 03:06:27;;;;;;;70.28;31.08;;;;;;;7.33;78.00;101130.72;6194530;23;20001;-73
2020/12/20 03:08:53;;;;;;;69.93;30.08;;;;;;;7.31;78.01;101127.38;6196167;23;20052;-73
2020/12/20 03:11:18;;;;;;;75.28;32.10;;;;;;;7.37;77.60;101136.63;6195854;23;20004;-73
2020/12/20 03:13:44;;;;;;;76.20;31.90;;;;;;;7.34;78.41;101134.22;6196060;23;20007;-73
2020/12/20 03:16:09;;;;;;;68.13;29.02;;;;;;;7.26;78.47;101125.97;6194547;23;20021;-73
2020/12/20 03:18:34;;;;;;;64.85;29.92;;;;;;;7.35;78.75;101135.91;6196512;23;20009;-73
2020/12/20 03:21:00;;;;;;;71.93;31.20;;;;;;;7.39;78.47;101141.78;6195994;23;20048;-73
2020/12/20 03:23:25;;;;;;;76.38;31.30;;;;;;;7.43;78.38;101132.72;6196187;23;20004;-73
2020/12/20 03:25:51;;;;;;;70.15;31.55;;;;;;;7.37;78.03;101131.34;6195832;23;20266;-73
2020/12/20 03:28:16;;;;;;;76.00;33.45;;;;;;;7.42;78.08;101137.16;6196222;23;20068;-73
2020/12/20 03:30:41;;;;;;;85.07;33.83;;;;;;;7.42;77.78;101144.22;6195853;23;20008;-73
2020/12/20 03:33:07;;;;;;;84.63;34.53;;;;;;;7.30;77.80;101132.75;6195517;23;20072;-73
2020/12/20 03:35:32;;;;;;;82.95;34.80;;;;;;;7.36;78.22;101140.22;6195842;23;20048;-73
2020/12/20 03:37:58;;;;;;;84.57;33.83;;;;;;;7.35;78.35;101146.44;6196271;23;20009;-73
2020/12/20 03:40:24;;;;;;;77.38;35.13;;;;;;;7.39;78.84;101147.91;6195711;23;20016;-73
2020/12/20 03:42:50;;;;;;;84.47;35.60;;;;;;;7.45;77.83;101146.63;6196142;23;20016;-73
2020/12/20 03:45:19;;;;;;;84.88;36.15;;;;;;;7.45;77.72;101144.00;6195688;23;19997;-73
2020/12/20 03:47:45;;;;;;;96.28;40.50;;;;;;;7.31;77.93;101132.63;6194155;23;20320;-73
2020/12/20 03:50:11;;;;;;;119.05;47.60;;;;;;;7.35;78.16;101146.44;6195627;23;20204;-73
2020/12/20 03:52:37;;;;;;;105.72;44.97;;;;;;;7.39;78.52;101150.53;6195758;23;20005;-73
2020/12/20 03:55:03;;;;;;;100.00;43.13;;;;;;;7.41;78.89;101155.72;6195292;23;20013;-73
2020/12/20 03:57:28;;;;;;;116.63;49.00;;;;;;;7.34;78.63;101155.28;6195655;23;20056;-73
2020/12/20 03:59:54;;;;;;;105.85;43.58;;;;;;;7.30;79.15;101157.28;6195562;23;20329;-73
2020/12/20 04:02:19;;;;;;;89.55;37.67;;;;;;;7.31;78.45;101160.78;6195791;23;20322;-73
2020/12/20 04:04:45;;;;;;;95.40;40.20;;;;;;;7.18;79.84;101162.53;6195521;23;20000;-73
2020/12/20 04:07:11;;;;;;;89.57;38.47;;;;;;;7.14;80.18;101161.91;6195702;23;20005;-73
2020/12/20 04:09:36;;;;;;;94.13;40.72;;;;;;;7.19;79.38;101158.97;6195485;23;19997;-73
2020/12/20 04:12:03;;;;;;;84.13;37.83;;;;;;;7.17;80.10;101168.75;6195567;23;20012;-73
2020/12/20 04:14:28;;;;;;;90.13;39.70;;;;;;;7.19;79.88;101166.88;6195263;23;20007;-73
2020/12/20 04:16:54;;;;;;;94.28;40.85;;;;;;;7.23;79.63;101161.28;6195608;23;20005;-73
2020/12/20 04:19:19;;;;;;;146.30;52.72;;;;;;;7.10;79.51;101134.09;6195237;23;20001;-73
2020/12/20 04:21:45;;;;;;;114.70;45.67;;;;;;;7.25;79.29;101156.75;6195412;23;20032;-73
2020/12/20 04:24:10;;;;;;;95.90;39.03;;;;;;;7.29;79.45;101166.16;6195044;23;20219;-73
2020/12/20 04:26:36;;;;;;;85.85;35.13;;;;;;;7.41;78.58;101159.19;6195286;23;20306;-73
2020/12/20 04:29:01;;;;;;;79.00;30.83;;;;;;;7.36;78.82;101151.59;6195302;23;19997;-73
2020/12/20 04:31:27;;;;;;;78.38;33.78;;;;;;;7.31;78.55;101163.41;6195196;23;19997;-73
2020/12/20 04:33:52;;;;;;;78.63;33.15;;;;;;;7.27;79.25;101173.28;6195169;23;20009;-73
2020/12/20 04:36:18;;;;;;;73.97;28.70;;;;;;;7.19;78.87;101162.44;6195114;23;20199;-73
2020/12/20 04:38:43;;;;;;;82.60;31.67;;;;;;;7.11;79.59;101171.81;6195181;23;20004;-73
2020/12/20 04:41:10;;;;;;;79.72;33.78;;;;;;;6.98;80.26;101175.28;6195176;23;19997;-73
2020/12/20 04:43:35;;;;;;;78.85;31.58;;;;;;;6.94;81.30;101173.81;6195479;23;20020;-73
2020/12/20 04:46:02;;;;;;;82.10;35.22;;;;;;;6.78;82.16;101172.31;6195272;23;19997;-73
2020/12/20 04:48:35;;;;;;;83.55;35.95;;;;;;;6.72;81.89;101168.31;6193885;23;20001;-73
2020/12/20 04:51:02;;;;;;;86.30;36.92;;;;;;;6.61;83.25;101174.28;6195141;23;20001;-73
2020/12/20 04:53:29;;;;;;;85.25;34.97;;;;;;;6.61;83.12;101176.06;6193343;23;20016;-73
2020/12/20 04:56:17;;;;;;;96.88;40.20;;;;;;;6.65;82.66;101177.56;6195036;23;20028;-73
2020/12/20 04:58:43;;;;;;;100.47;39.65;;;;;;;6.65;82.73;101178.41;6194915;23;20310;-73
2020/12/20 05:01:08;;;;;;;98.55;37.45;;;;;;;6.62;83.11;101178.59;6195387;23;20023;-73
2020/12/20 05:03:35;;;;;;;97.90;38.90;;;;;;;6.56;84.00;101171.13;6195491;23;20060;-73
2020/12/20 05:06:00;;;;;;;95.75;40.70;;;;;;;6.70;84.64;101185.97;6194917;23;20013;-73
2020/12/20 05:08:26;;;;;;;101.82;42.17;;;;;;;6.84;82.77;101187.69;6195394;23;20005;-73
2020/12/20 05:10:53;;;;;;;98.60;39.90;;;;;;;6.96;81.79;101186.88;6194949;23;20198;-73
2020/12/20 05:13:20;;;;;;;105.68;42.25;;;;;;;7.04;80.88;101189.81;6195238;23;20005;-73
2020/12/20 05:15:46;;;;;;;108.65;43.45;;;;;;;7.04;81.07;101187.19;6194828;23;20039;-73
2020/12/20 05:18:14;;;;;;;109.53;43.75;;;;;;;6.99;80.89;101184.88;6195347;23;20005;-73
2020/12/20 05:20:44;;;;;;;113.43;45.65;;;;;;;6.92;81.81;101190.66;6194727;23;20333;-73
2020/12/20 05:23:11;;;;;;;111.80;46.13;;;;;;;6.79;82.49;101195.91;6195041;23;20001;-73
2020/12/20 05:25:39;;;;;;;115.60;47.22;;;;;;;6.62;82.86;101199.66;6194611;23;20001;-73
2020/12/20 05:28:08;;;;;;;117.60;48.03;;;;;;;6.64;83.45;101208.28;6195120;23;20270;-73
2020/12/20 05:30:34;;;;;;;120.25;47.15;;;;;;;6.46;83.76;101201.59;6194680;23;20183;-73
2020/12/20 05:33:00;;;;;;;114.95;44.13;;;;;;;6.49;84.21;101200.56;6193114;23;20017;-73
2020/12/20 05:35:26;;;;;;;107.50;43.42;;;;;;;6.47;84.83;101200.66;6194727;23;20008;-73
2020/12/20 05:37:51;;;;;;;95.50;36.15;;;;;;;6.34;84.86;101191.88;6194620;23;20168;-73
2020/12/20 05:40:24;;;;;;;97.13;39.38;;;;;;;6.43;84.56;101212.34;6194667;23;20039;-73
2020/12/20 05:43:04;;;;;;;96.18;38.13;;;;;;;6.40;85.42;101200.22;6195091;23;20008;-73
2020/12/20 05:45:32;;;;;;;94.05;36.30;;;;;;;6.35;85.75;101212.81;6194613;23;20008;-73
2020/12/20 05:48:11;;;;;;;98.25;39.17;;;;;;;6.39;85.40;101216.09;6195180;23;20183;-73
2020/12/20 05:50:37;;;;;;;95.30;38.43;;;;;;;6.38;85.90;101223.16;6194670;23;20031;-73
2020/12/20 05:53:05;;;;;;;90.90;35.97;;;;;;;6.37;86.09;101226.72;6194913;23;20067;-73
2020/12/20 05:55:49;;;;;;;91.45;36.47;;;;;;;6.44;85.22;101221.91;6193165;23;20005;-73
2020/12/20 05:58:15;;;;;;;81.57;32.55;;;;;;;6.55;85.32;101227.31;6197160;23;20190;-73
2020/12/20 06:00:43;;;;;;;83.68;34.67;;;;;;;6.47;85.61;101224.34;6196707;23;20005;-73
2020/12/20 06:03:10;;;;;;;84.15;33.38;;;;;;;6.37;85.77;101228.50;6196607;23;20190;-73
2020/12/20 06:05:38;;;;;;;69.95;29.75;;;;;;;6.48;84.51;101235.72;6196582;23;20009;-73
2020/12/20 06:08:09;;;;;;;79.30;31.65;;;;;;;6.47;84.92;101237.50;6197181;23;20175;-73
2020/12/20 06:10:38;;;;;;;74.50;31.88;;;;;;;6.32;85.43;101241.97;6195134;23;20039;-73
2020/12/20 06:13:06;;;;;;;85.50;34.20;;;;;;;6.38;85.40;101238.94;6196887;23;20283;-72
2020/12/20 06:15:35;;;;;;;97.57;38.08;;;;;;;6.26;86.39;101234.47;6196549;23;20064;-73
2020/12/20 06:18:04;;;;;;;110.28;38.92;;;;;;;6.22;85.89;101229.47;6195274;23;20047;-72
2020/12/20 06:20:30;;;;;;;97.30;37.67;;;;;;;6.00;87.13;101216.84;6194944;23;20052;-72
2020/12/20 06:22:56;;;;;;;120.27;43.50;;;;;;;6.02;87.44;101231.56;6195111;23;20024;-73
2020/12/20 06:25:24;;;;;;;120.72;42.38;;;;;;;6.13;87.08;101230.06;6196560;23;20005;-73
2020/12/20 06:27:50;;;;;;;109.65;40.00;;;;;;;5.99;87.60;101236.19;6196180;23;20048;-72
2020/12/20 06:30:18;;;;;;;117.72;41.60;;;;;;;5.95;88.10;101238.16;6196361;23;20012;-73
2020/12/20 06:32:53;;;;;;;105.85;40.47;;;;;;;6.04;87.87;101232.31;6195944;23;20009;-73
2020/12/20 06:35:24;;;;;;;102.07;39.47;;;;;;;5.96;88.40;101239.84;6196320;23;19997;-73
2020/12/20 06:37:49;;;;;;;101.88;37.20;;;;;;;5.96;88.20;101239.00;6196607;23;20060;-73
2020/12/20 06:40:41;;;;;;;84.85;36.50;;;;;;;6.16;87.71;101250.91;6196302;23;19997;-73
2020/12/20 06:43:08;;;;;;;90.13;38.47;;;;;;;6.04;87.85;101242.00;6196141;23;20337;-73
2020/12/20 06:45:42;;;;;;;94.57;36.78;;;;;;;6.08;87.34;101240.88;6196266;23;20001;-73
2020/12/20 06:48:09;;;;;;;96.57;39.03;;;;;;;5.92;88.95;101250.66;6196983;23;20252;-73
2020/12/20 06:50:37;;;;;;;96.18;40.03;;;;;;;6.05;88.82;101251.56;6196403;23;20201;-73
2020/12/20 06:53:04;;;;;;;95.95;39.40;;;;;;;6.00;88.86;101246.59;6196429;23;20008;-73
2020/12/20 06:55:29;;;;;;;95.53;39.25;;;;;;;6.13;88.06;101249.31;6195966;23;19997;-73
2020/12/20 06:58:13;;;;;;;116.97;47.58;;;;;;;6.15;88.05;101257.09;6194698;23;20016;-73
2020/12/20 07:00:55;;;;;;;107.75;44.20;;;;;;;6.04;88.15;101249.88;6194650;23;19997;-73
2020/12/20 07:03:23;;;;;;;114.43;45.20;;;;;;;6.02;89.22;101263.13;6196771;23;20015;-73
2020/12/20 07:05:56;;;;;;;112.43;46.20;;;;;;;5.97;88.35;101249.44;6196075;23;20052;-73
2020/12/20 07:08:23;;;;;;;99.68;36.88;;;;;;;5.93;88.30;101242.66;6196439;23;20072;-73
2020/12/20 07:10:54;;;;;;;117.93;45.97;;;;;;;6.03;87.34;101253.47;6196026;23;20071;-73
2020/12/20 07:13:32;;;;;;;115.43;44.88;;;;;;;5.98;88.07;101247.63;6195845;23;20291;-73
2020/12/20 07:16:15;;;;;;;112.07;44.67;;;;;;;6.07;87.10;101253.16;6194482;23;20001;-73
2020/12/20 07:19:02;;;;;;;122.83;47.57;;;;;;;6.11;87.71;101266.13;6196702;23;20068;-73
2020/12/20 07:21:27;;;;;;;125.63;47.28;;;;;;;6.05;88.47;101264.72;6196554;23;20048;-73
2020/12/20 07:24:03;;;;;;;132.05;50.47;;;;;;;5.95;88.88;101263.59;6195722;23;19997;-73
2020/12/20 07:26:29;;;;;;;131.67;48.00;;;;;;;5.86;89.43;101264.16;6195790;23;20060;-73
2020/12/20 07:29:03;;;;;;;140.83;53.30;;;;;;;5.93;88.80;101263.69;6195866;23;20005;-73
2020/12/20 07:31:29;;;;;;;135.88;51.97;;;;;;;6.03;88.97;101261.34;6195861;23;20001;-73
2020/12/20 07:33:55;;;;;;;127.25;49.20;;;;;;;6.01;88.78;101273.75;6195796;23;20068;-73
2020/12/20 07:36:22;;;;;;;135.38;51.40;;;;;;;6.06;88.39;101267.25;6195534;23;20270;-73
2020/12/20 07:38:48;;;;;;;126.20;49.45;;;;;;;6.13;87.90;101257.19;6194337;23;20023;-73
2020/12/20 07:41:16;;;;;;;129.70;47.35;;;;;;;6.43;87.48;101269.38;6194243;23;19997;-73
2020/12/20 07:43:43;;;;;;;133.38;47.95;;;;;;;6.32;87.47;101283.22;6195694;23;20065;-73
2020/12/20 07:46:10;;;;;;;121.57;46.20;;;;;;;6.26;87.61;101287.06;6195630;23;20001;-73
2020/12/20 07:48:36;;;;;;;140.37;53.07;;;;;;;6.20;87.77;101276.91;6196370;23;20051;-73
2020/12/20 07:51:19;;;;;;;121.93;48.08;;;;;;;6.36;86.85;101275.03;6195703;23;20012;-73
2020/12/20 07:53:55;;;;;;;116.50;44.47;;;;;;;6.33;87.30;101279.63;6195281;23;20015;-73
2020/12/20 07:56:31;;;;;;;116.88;43.10;;;;;;;6.42;87.48;101284.31;6195340;23;20060;-73
2020/12/20 07:59:11;;;;;;;122.50;44.42;;;;;;;6.56;87.57;101289.53;6195580;23;20008;-73
2020/12/20 08:01:38;;;;;;;121.65;42.92;;;;;;;6.61;86.33;101289.25;6195507;23;20117;-73
2020/12/20 08:04:07;;;;;;;126.70;44.05;;;;;;;6.63;86.35;101285.56;6195516;23;20001;-73
2020/12/20 08:06:41;;;;;;;119.05;42.30;;;;;;;6.61;86.40;101283.97;6195411;23;19997;-73
2020/12/20 08:09:18;;;;;;;123.93;43.50;;;;;;;6.66;87.04;101285.38;6195513;23;20001;-73
2020/12/20 08:11:46;;;;;;;115.03;43.47;;;;;;;6.73;86.75;101278.75;6195423;23;20299;-73
2020/12/20 08:14:17;;;;;;;103.15;41.05;;;;;;;6.88;84.90;101282.19;6195236;23;20001;-73
2020/12/20 08:16:44;;;;;;;105.93;40.42;;;;;;;6.80;85.50;101276.56;6194062;23;20033;-73
2020/12/20 08:19:16;;;;;;;113.75;41.90;;;;;;;6.82;85.31;101281.75;6195026;23;20012;-73
2020/12/20 08:21:57;;;;;;;112.47;39.15;;;;;;;6.92;84.84;101286.28;6195798;23;20306;-73
2020/12/20 08:24:26;;;;;;;112.22;42.17;;;;;;;6.87;85.23;101269.13;6195060;23;20035;-73
2020/12/20 08:26:53;;;;;;;124.25;47.08;;;;;;;6.99;84.63;101286.72;6195157;23;20009;-73
2020/12/20 08:29:18;;;;;;;143.73;53.80;;;;;;;7.03;85.28;101289.06;6195599;23;20230;-73
2020/12/20 08:31:45;;;;;;;131.73;48.17;;;;;;;7.07;84.36;101271.25;6194982;23;20005;-73
2020/12/20 08:34:15;;;;;;;114.82;44.70;;;;;;;7.17;84.28;101280.25;6195091;23;20004;-73
2020/12/20 08:36:46;;;;;;;108.07;40.60;;;;;;;7.19;83.68;101278.34;6195225;23;20051;-73
2020/12/20 08:39:28;;;;;;;105.43;39.42;;;;;;;7.07;84.18;101287.06;6193689;23;20005;-73
2020/12/20 08:42:02;;;;;;;104.38;39.10;;;;;;;7.16;84.32;101281.19;6146711;23;20013;-73
2020/12/20 08:44:29;;;;;;;114.97;42.58;;;;;;;7.14;84.00;101283.09;6195120;23;20024;-73
2020/12/20 08:47:05;;;;;;;105.53;38.58;;;;;;;7.04;83.33;101260.94;6195194;23;20314;-73
2020/12/20 08:49:30;;;;;;;105.28;44.20;;;;;;;7.07;83.79;101276.53;6193655;23;20001;-73
2020/12/20 08:52:07;;;;;;;103.85;44.90;;;;;;;7.17;83.59;101274.97;6194888;23;20052;-73
2020/12/20 08:54:33;;;;;;;98.97;40.83;;;;;;;7.01;83.76;101284.84;6194847;23;20005;-73
2020/12/20 08:57:12;;;;;;;95.93;40.17;;;;;;;6.90;83.84;101274.19;6195146;23;20031;-73
2020/12/20 08:59:38;;;;;;;107.47;45.20;;;;;;;6.87;85.09;101274.38;6195151;23;20001;-73
2020/12/20 09:02:05;;;;;;;131.02;46.53;;;;;;;7.02;84.94;101278.63;6195082;23;20055;-73
2020/12/20 09:04:35;;;;;;;107.05;43.00;;;;;;;7.05;84.92;101260.00;6194813;23;20040;-73
2020/12/20 09:07:04;;;;;;;102.88;41.58;;;;;;;7.02;84.98;101273.38;6195208;23;20012;-73
2020/12/20 09:09:30;;;;;;;100.20;38.38;;;;;;;7.09;84.06;101260.63;6194934;23;20000;-73
2020/12/20 09:12:12;;;;;;;104.82;40.53;;;;;;;7.02;84.00;101242.59;6193346;23;20409;-73
2020/12/20 09:14:38;;;;;;;101.30;38.00;;;;;;;7.21;81.85;101259.81;6194917;23;20012;-73
2020/12/20 09:17:04;;;;;;;101.68;38.55;;;;;;;7.15;83.00;101263.69;6194669;23;20027;-73
2020/12/20 09:19:30;;;;;;;97.00;38.65;;;;;;;7.34;80.27;101261.53;6194846;23;20001;-73
2020/12/20 09:21:55;;;;;;;87.95;35.33;;;;;;;7.34;79.99;101260.69;6194867;23;20338;-73
2020/12/20 09:24:21;;;;;;;83.32;32.92;;;;;;;7.25;80.56;101269.19;6194518;23;20362;-73
2020/12/20 09:26:57;;;;;;;85.93;31.88;;;;;;;6.81;82.66;101261.63;6194913;23;20317;-73
2020/12/20 09:29:23;;;;;;;40.65;20.23;;;;;;;6.35;83.75;101272.50;6193266;23;20056;-73
2020/12/20 09:31:49;;;;;;;51.83;21.40;;;;;;;6.22;85.27;101266.28;6194937;23;20009;-72
2020/12/20 09:34:14;;;;;;;49.50;21.33;;;;;;;5.86;87.36;101259.72;6194694;23;20004;-73
2020/12/20 09:36:40;;;;;;;57.58;24.52;;;;;;;5.54;88.46;101224.91;6194745;23;20008;-73
2020/12/20 09:39:06;;;;;;;49.60;22.23;;;;;;;5.54;89.61;101261.72;6193322;23;20028;-72
2020/12/20 09:41:33;;;;;;;47.90;22.40;;;;;;;5.41;90.80;101261.59;6194722;23;20012;-72
2020/12/20 09:43:59;;;;;;;49.00;22.07;;;;;;;5.36;91.61;101242.66;6194773;23;20005;-73
2020/12/20 09:46:27;;;;;;;60.72;25.50;;;;;;;5.41;92.12;101266.00;6194559;23;20056;-72
2020/12/20 09:48:55;;;;;;;54.00;22.00;;;;;;;5.43;91.63;101258.88;6194742;23;20021;-72
2020/12/20 09:51:22;;;;;;;46.70;19.93;;;;;;;5.42;91.99;101270.31;6194474;23;20001;-72
2020/12/20 09:53:49;;;;;;;49.40;20.07;;;;;;;5.44;91.96;101265.81;6193341;23;20013;-73
2020/12/20 09:56:15;;;;;;;50.33;21.37;;;;;;;5.44;91.71;101265.81;6194602;23;20175;-73
2020/12/20 09:58:41;;;;;;;47.97;20.80;;;;;;;5.54;90.97;101258.22;6193347;23;20029;-72
2020/12/20 10:01:06;;;;;;;51.43;20.77;;;;;;;5.48;91.46;101261.22;6194798;23;20005;-72
2020/12/20 10:03:32;;;;;;;55.57;22.30;;;;;;;5.42;91.73;101244.06;6195189;23;20068;-73
2020/12/20 10:05:58;;;;;;;42.47;16.43;;;;;;;5.35;91.82;101253.25;6194616;23;20005;-73
2020/12/20 10:08:25;;;;;;;38.37;17.03;;;;;;;5.37;91.81;101251.38;6194546;23;20187;-73
2020/12/20 10:10:55;;;;;;;49.67;20.17;;;;;;;5.42;92.08;101259.81;6194603;23;20005;-72
2020/12/20 10:13:23;;;;;;;44.03;17.90;;;;;;;5.26;91.97;101246.75;6193238;23;20054;-73
2020/12/20 10:15:49;;;;;;;49.43;20.60;;;;;;;5.17;92.85;101230.66;6194578;23;20034;-72
2020/12/20 10:18:14;;;;;;;54.37;21.10;;;;;;;5.20;92.96;101236.63;6194972;23;20005;-73
2020/12/20 10:20:40;;;;;;;60.70;22.47;;;;;;;5.28;93.35;101239.63;6194562;23;20035;-73
2020/12/20 10:23:06;;;;;;;63.90;23.83;;;;;;;5.23;93.81;101225.94;6194722;23;20012;-72
2020/12/20 10:25:32;;;;;;;46.00;19.20;;;;;;;5.37;92.61;101236.44;6194804;23;20005;-72
2020/12/20 10:27:58;;;;;;;55.63;23.83;;;;;;;5.40;92.80;101236.28;6194810;23;20024;-73
2020/12/20 10:30:25;;;;;;;52.50;21.50;;;;;;;5.56;92.17;101235.34;6194489;23;20016;-73
2020/12/20 10:32:51;;;;;;;46.13;19.00;;;;;;;5.63;91.42;101236.66;6194186;23;20066;-72
2020/12/20 10:35:18;;;;;;;46.83;19.50;;;;;;;5.49;91.98;101224.34;6192909;23;20012;-73
2020/12/20 10:37:43;;;;;;;54.37;23.13;;;;;;;5.53;92.10;101217.13;6194782;23;20013;-73
2020/12/20 10:40:09;;;;;;;29.93;13.57;;;;;;;5.56;91.28;101228.31;6192948;23;20054;-72
2020/12/20 10:42:35;;;;;;;36.40;14.53;;;;;;;5.60;89.89;101215.81;6195690;23;20009;-72
2020/12/20 10:45:00;;;;;;;45.50;18.53;;;;;;;5.54;90.46;101224.91;6196423;23;20005;-72
2020/12/20 10:47:25;;;;;;;49.13;20.83;;;;;;;5.71;90.32;101221.25;6194912;23;20032;-72
2020/12/20 10:49:51;;;;;;;56.05;23.48;;;;;;;5.61;91.33;101213.09;6196341;23;20028;-72
2020/12/20 10:52:17;;;;;;;46.70;20.53;;;;;;;5.63;90.48;101219.09;6196311;23;20008;-73
2020/12/20 10:54:45;;;;;;;53.40;20.80;;;;;;;5.68;90.74;101221.44;6196082;23;20198;-72
2020/12/20 10:57:11;;;;;;;39.33;17.20;;;;;;;5.46;90.77;101195.66;6194656;23;20349;-73
2020/12/20 10:59:36;;;;;;;46.13;20.43;;;;;;;5.60;90.59;101214.03;6196161;23;20024;-72
2020/12/20 11:02:02;;;;;;;54.00;24.80;;;;;;;5.71;90.83;101224.72;6196430;23;20016;-73
2020/12/20 11:04:28;;;;;;;42.23;17.23;;;;;;;5.90;88.36;101208.69;6194615;23;20008;-73
2020/12/20 11:06:57;;;;;;;45.37;18.43;;;;;;;5.93;88.12;101210.28;6196484;23;20009;-73
2020/12/20 11:09:25;;;;;;;37.83;16.60;;;;;;;6.01;88.72;101213.28;6194594;23;20241;-73
2020/12/20 11:11:50;;;;;;;39.35;18.52;;;;;;;5.91;88.38;101207.75;6196211;23;20037;-73
2020/12/20 11:14:16;;;;;;;52.07;21.97;;;;;;;5.92;88.23;101211.22;6195912;23;20398;-73
2020/12/20 11:16:42;;;;;;;41.83;19.27;;;;;;;5.98;89.13;101200.31;6196101;23;20274;-73